Terminal Aerodrome Forecast
Issued by NWS

Home | Current Version | Previous Version | Text Only | Print | Product List | Glossary On
Versions: 1 2 3 4 5 6 7 8 9 10 11 12 13 14 15 16
000
FTUS45 KBYZ 280046 AAB
TAFLVM
TAF AMD
KLVM 280046Z 2801/2824 24015G20KT 4SM RA BKN045
     FM280200 26011KT P6SM VCSH SCT040 BKN150
     FM280900 25008KT P6SM SCT060=

USA.gov is the U.S. government's official web portal to all federal, state and local government web resources and services.